Time;durP1;ratioP1;P1;durP2;ratioP2;P2;SDS_P1;SDS_P2;PMS_P1;PMS_P2;Temp;Humidity;BMP_temperature;BMP_pressure;BME280_temperature;BME280_humidity;BME280_pressure;Samples;Min_cycle;Max_cycle;Signal;HPM_P1;HPM_P2
2023/04/18 00:00:24;;;;;;;14.48;12.98;;;6.90;97.20;;;;;;5011316;28;20037;-80
2023/04/18 00:02:52;;;;;;;15.98;13.52;;;6.90;97.50;;;;;;5000345;28;20037;-79
2023/04/18 00:05:19;;;;;;;16.80;14.10;;;6.90;97.90;;;;;;5009148;28;20737;-80
2023/04/18 00:07:45;;;;;;;14.63;12.57;;;6.80;98.30;;;;;;4999680;28;20486;-81
2023/04/18 00:10:10;;;;;;;14.90;13.40;;;6.80;98.70;;;;;;5018465;28;20045;-79
2023/04/18 00:12:36;;;;;;;15.65;14.02;;;6.80;99.00;;;;;;4996198;28;20053;-79
2023/04/18 00:15:04;;;;;;;16.15;13.57;;;6.80;99.30;;;;;;4997227;28;20060;-81
2023/04/18 00:17:31;;;;;;;14.70;13.15;;;6.90;99.60;;;;;;5018056;28;20053;-80
2023/04/18 00:19:57;;;;;;;15.27;13.77;;;6.80;99.90;;;;;;4996231;28;20037;-79
2023/04/18 00:22:24;;;;;;;15.82;13.70;;;6.80;99.90;;;;;;5012198;28;20038;-79
2023/04/18 00:24:51;;;;;;;15.38;13.15;;;6.80;99.90;;;;;;5015949;28;20496;-78
2023/04/18 00:27:18;;;;;;;15.70;13.68;;;6.80;99.90;;;;;;5034289;28;20053;-80
2023/04/18 00:29:43;;;;;;;14.07;12.63;;;6.80;99.90;;;;;;5012372;28;20617;-78
2023/04/18 00:32:09;;;;;;;13.68;12.27;;;6.80;99.90;;;;;;4984944;28;20045;-79
2023/04/18 00:34:35;;;;;;;14.57;12.65;;;6.80;99.90;;;;;;5002011;28;21037;-78
2023/04/18 00:37:01;;;;;;;14.32;12.35;;;6.80;99.90;;;;;;4987827;28;20050;-80
2023/04/18 00:39:30;;;;;;;14.02;12.63;;;6.80;99.90;;;;;;5003564;28;20140;-79
2023/04/18 00:41:56;;;;;;;13.93;12.43;;;6.80;99.90;;;;;;4998038;28;20037;-79
2023/04/18 00:44:21;;;;;;;13.00;11.70;;;6.80;99.90;;;;;;4980117;28;20064;-78
2023/04/18 00:46:47;;;;;;;12.88;11.40;;;6.80;99.90;;;;;;4991765;28;20057;-78
2023/04/18 00:49:14;;;;;;;14.35;12.00;;;6.80;99.90;;;;;;4991289;28;20052;-79
2023/04/18 00:51:40;;;;;;;13.82;11.90;;;6.80;99.90;;;;;;5015260;28;20033;-80
2023/04/18 00:54:07;;;;;;;13.93;12.38;;;6.80;99.90;;;;;;5023438;28;20099;-79
2023/04/18 00:56:34;;;;;;;14.90;13.32;;;6.80;99.90;;;;;;5016230;28;20103;-79
2023/04/18 00:59:00;;;;;;;13.48;12.18;;;6.80;99.90;;;;;;5012221;28;20052;-79
2023/04/18 01:01:26;;;;;;;15.25;12.82;;;6.80;99.90;;;;;;4992852;28;20037;-78
2023/04/18 01:03:52;;;;;;;13.27;11.88;;;6.80;99.90;;;;;;5007236;28;20044;-80
2023/04/18 01:06:18;;;;;;;14.15;12.45;;;6.80;99.90;;;;;;4996397;28;20042;-78
2023/04/18 01:08:45;;;;;;;15.23;13.23;;;6.70;99.90;;;;;;5007692;28;20045;-79
2023/04/18 01:11:11;;;;;;;14.45;12.95;;;6.70;99.90;;;;;;4976292;28;20051;-79
2023/04/18 01:13:37;;;;;;;14.65;12.85;;;6.60;99.90;;;;;;4995693;28;20080;-78
2023/04/18 01:16:02;;;;;;;15.15;13.55;;;6.60;99.90;;;;;;4983570;28;22055;-80
2023/04/18 01:18:30;;;;;;;14.57;12.70;;;6.60;99.90;;;;;;4978334;28;20044;-79
2023/04/18 01:20:59;;;;;;;15.60;13.43;;;6.50;99.90;;;;;;5003603;28;20046;-80
2023/04/18 01:23:25;;;;;;;16.45;13.65;;;6.50;99.90;;;;;;4992350;28;20047;-78
2023/04/18 01:25:51;;;;;;;14.40;12.95;;;6.60;99.90;;;;;;5004769;28;20471;-79
2023/04/18 01:28:20;;;;;;;14.15;12.65;;;6.60;99.90;;;;;;4976008;28;20125;-79
2023/04/18 01:30:45;;;;;;;14.73;12.40;;;6.60;99.90;;;;;;5011380;28;20045;-79
2023/04/18 01:33:11;;;;;;;13.65;12.30;;;6.60;99.90;;;;;;4991457;28;20404;-79
2023/04/18 01:35:37;;;;;;;15.13;13.52;;;6.60;99.90;;;;;;4989122;28;20037;-78
2023/04/18 01:38:03;;;;;;;14.55;13.02;;;6.50;99.90;;;;;;4994910;28;20048;-78
2023/04/18 01:40:35;;;;;;;13.68;12.25;;;6.60;99.90;;;;;;4994611;28;20721;-78
2023/04/18 01:43:01;;;;;;;14.80;13.10;;;6.50;99.90;;;;;;4983184;28;20399;-79
2023/04/18 01:45:26;;;;;;;14.43;12.90;;;6.50;99.90;;;;;;4999950;28;20049;-78
2023/04/18 01:47:52;;;;;;;14.13;12.73;;;6.40;99.90;;;;;;5010483;28;20045;-79
2023/04/18 01:50:18;;;;;;;15.60;14.00;;;6.40;99.90;;;;;;5011552;28;20683;-78
2023/04/18 01:52:44;;;;;;;15.25;13.73;;;6.40;99.90;;;;;;5014076;28;20543;-79
2023/04/18 01:55:10;;;;;;;15.27;13.75;;;6.40;99.90;;;;;;5010294;28;20053;-79
2023/04/18 01:57:36;;;;;;;14.88;13.05;;;6.50;99.90;;;;;;5029369;28;20551;-81
2023/04/18 02:00:06;;;;;;;14.43;12.93;;;6.50;99.90;;;;;;5009737;28;20045;-79
2023/04/18 02:02:32;;;;;;;14.88;13.15;;;6.50;99.90;;;;;;5012345;28;20109;-80
2023/04/18 02:04:58;;;;;;;14.82;13.32;;;6.50;99.90;;;;;;4989472;28;20042;-78
2023/04/18 02:07:27;;;;;;;15.02;13.45;;;6.50;99.90;;;;;;4993949;28;20441;-79
2023/04/18 02:09:53;;;;;;;15.35;13.75;;;6.50;99.90;;;;;;5013211;28;20041;-80
2023/04/18 02:12:21;;;;;;;16.40;14.70;;;6.50;99.90;;;;;;4983716;28;20407;-79
2023/04/18 02:14:56;;;;;;;16.10;14.40;;;6.40;99.90;;;;;;4990330;28;20042;-78
2023/04/18 02:17:22;;;;;;;16.15;14.45;;;6.50;99.90;;;;;;4990356;28;20141;-79
2023/04/18 02:19:49;;;;;;;16.77;14.80;;;6.50;99.90;;;;;;4993058;28;20393;-78
2023/04/18 02:22:15;;;;;;;16.40;14.80;;;6.50;99.90;;;;;;5010713;28;20219;-81
2023/04/18 02:24:44;;;;;;;16.88;15.20;;;6.50;99.90;;;;;;5015206;28;20573;-80
2023/04/18 02:27:10;;;;;;;17.23;15.52;;;6.60;99.90;;;;;;4999038;28;20095;-79
2023/04/18 02:29:36;;;;;;;16.30;14.77;;;6.60;99.90;;;;;;4998341;28;20045;-79
2023/04/18 02:32:02;;;;;;;16.60;14.77;;;6.50;99.90;;;;;;4987346;28;20056;-79
2023/04/18 02:34:28;;;;;;;18.02;15.57;;;6.60;99.90;;;;;;4992758;28;20080;-79
2023/04/18 02:36:54;;;;;;;17.25;14.93;;;6.60;99.90;;;;;;5005453;28;20396;-80
2023/04/18 02:39:20;;;;;;;18.92;15.63;;;6.60;99.90;;;;;;4991748;28;20057;-80
2023/04/18 02:41:45;;;;;;;16.80;15.20;;;6.60;99.90;;;;;;5004921;28;20073;-81
2023/04/18 02:44:11;;;;;;;17.40;15.65;;;6.60;99.90;;;;;;5013243;28;20335;-79
2023/04/18 02:46:37;;;;;;;17.60;15.10;;;6.70;99.90;;;;;;4968570;28;20069;-79
2023/04/18 02:49:03;;;;;;;17.02;15.25;;;6.70;99.90;;;;;;5015579;28;20053;-79
2023/04/18 02:51:29;;;;;;;17.40;15.60;;;6.70;99.90;;;;;;4994505;28;20291;-80
2023/04/18 02:53:55;;;;;;;18.17;16.27;;;6.70;99.90;;;;;;5009436;28;20041;-79
2023/04/18 02:56:21;;;;;;;16.83;15.13;;;6.70;99.90;;;;;;5012644;28;20057;-79
2023/04/18 02:58:47;;;;;;;17.65;15.77;;;6.70;99.90;;;;;;4993525;28;20747;-79
2023/04/18 03:01:14;;;;;;;17.10;15.40;;;6.70;99.90;;;;;;5010490;28;20439;-82
2023/04/18 03:03:40;;;;;;;16.48;14.88;;;6.80;99.90;;;;;;4978345;28;20128;-83
2023/04/18 03:06:06;;;;;;;17.67;15.88;;;6.70;99.90;;;;;;4981308;28;20894;-83
2023/04/18 03:08:32;;;;;;;17.35;15.55;;;6.70;99.90;;;;;;4976035;28;20052;-81
2023/04/18 03:10:58;;;;;;;16.85;14.98;;;6.70;99.90;;;;;;4992020;28;20045;-81
2023/04/18 03:13:26;;;;;;;16.65;14.95;;;6.70;99.90;;;;;;5010309;28;20073;-81
2023/04/18 03:15:59;;;;;;;18.98;15.63;;;6.70;99.90;;;;;;4996302;28;20460;-80
2023/04/18 03:18:25;;;;;;;17.15;15.30;;;6.70;99.90;;;;;;5008049;28;20137;-79
2023/04/18 03:20:51;;;;;;;17.10;14.73;;;6.70;99.90;;;;;;4990488;28;20488;-79
2023/04/18 03:23:20;;;;;;;16.08;14.38;;;6.70;99.90;;;;;;4992720;28;20598;-80
2023/04/18 03:25:45;;;;;;;16.98;15.18;;;6.70;99.90;;;;;;5010269;28;20035;-79
2023/04/18 03:28:11;;;;;;;18.83;15.35;;;6.70;99.90;;;;;;5011210;28;20429;-79
2023/04/18 03:30:37;;;;;;;16.73;14.90;;;6.70;99.90;;;;;;4993763;28;20097;-80
2023/04/18 03:33:04;;;;;;;16.35;14.65;;;6.70;99.90;;;;;;5008768;28;20060;-79
2023/04/18 03:35:32;;;;;;;16.27;14.25;;;6.70;99.90;;;;;;5012499;28;20095;-79
2023/04/18 03:37:58;;;;;;;16.35;14.38;;;6.70;99.90;;;;;;4996857;28;20120;-79
2023/04/18 03:40:27;;;;;;;17.02;15.25;;;6.70;99.90;;;;;;4994258;28;20045;-78
2023/04/18 03:42:52;;;;;;;16.48;14.32;;;6.70;99.90;;;;;;5019298;28;20532;-80
2023/04/18 03:45:18;;;;;;;16.85;15.10;;;6.70;99.90;;;;;;4979238;28;20114;-79
2023/04/18 03:47:45;;;;;;;16.33;14.65;;;6.80;99.90;;;;;;5012903;28;20107;-79
2023/04/18 03:50:11;;;;;;;15.82;14.20;;;6.70;99.90;;;;;;4995952;28;21014;-80
2023/04/18 03:52:36;;;;;;;15.85;14.13;;;6.70;99.90;;;;;;4978091;28;20156;-79
2023/04/18 03:55:02;;;;;;;17.02;14.80;;;6.70;99.90;;;;;;5012237;28;20071;-80
2023/04/18 03:57:31;;;;;;;15.40;13.90;;;6.70;99.90;;;;;;5011548;28;20072;-79
2023/04/18 03:59:58;;;;;;;15.98;14.38;;;6.80;99.90;;;;;;4996833;28;20742;-79
2023/04/18 04:02:45;;;;;;;16.35;14.07;;;6.80;99.90;;;;;;5009365;28;20411;-81
2023/04/18 04:05:11;;;;;;;15.90;14.18;;;6.90;99.90;;;;;;4998604;28;20124;-79
2023/04/18 04:07:37;;;;;;;19.15;14.65;;;6.80;99.90;;;;;;4992263;28;20734;-79
2023/04/18 04:10:03;;;;;;;15.60;13.85;;;6.80;99.90;;;;;;5012952;28;20099;-79
2023/04/18 04:12:29;;;;;;;16.75;15.07;;;6.80;99.90;;;;;;4994840;28;20076;-80
2023/04/18 04:14:55;;;;;;;16.40;14.77;;;6.70;99.90;;;;;;4993732;28;20120;-79
2023/04/18 04:17:21;;;;;;;16.75;14.68;;;6.80;99.90;;;;;;5011479;28;20588;-80
2023/04/18 04:19:49;;;;;;;16.80;15.00;;;6.70;99.90;;;;;;5009959;28;20786;-79
2023/04/18 04:22:15;;;;;;;16.55;14.77;;;6.80;99.90;;;;;;5011041;28;20208;-80
2023/04/18 04:24:41;;;;;;;15.90;14.20;;;6.70;99.90;;;;;;4994195;28;20718;-80
2023/04/18 04:27:07;;;;;;;16.48;14.77;;;6.80;99.90;;;;;;4995594;28;20061;-79
2023/04/18 04:29:34;;;;;;;15.88;14.30;;;6.80;99.90;;;;;;4993817;28;20668;-79
2023/04/18 04:31:59;;;;;;;16.05;14.23;;;6.70;99.90;;;;;;5009903;28;20084;-80
2023/04/18 04:34:25;;;;;;;15.20;13.63;;;6.70;99.90;;;;;;5009613;28;20796;-80
2023/04/18 04:36:52;;;;;;;15.23;13.60;;;6.70;99.90;;;;;;5008826;28;20044;-80
2023/04/18 04:39:18;;;;;;;17.58;15.43;;;6.80;99.90;;;;;;5009387;28;20056;-80
2023/04/18 04:41:46;;;;;;;16.10;14.38;;;6.80;99.90;;;;;;4977623;28;20688;-79
2023/04/18 04:44:16;;;;;;;15.40;13.82;;;6.80;99.90;;;;;;5009691;28;20128;-78
2023/04/18 04:46:43;;;;;;;15.68;14.07;;;6.70;99.90;;;;;;5001069;28;20546;-79
2023/04/18 04:49:10;;;;;;;16.15;14.45;;;6.80;99.90;;;;;;5010449;28;20579;-79
2023/04/18 04:51:36;;;;;;;16.38;14.68;;;6.80;99.90;;;;;;4994666;28;20535;-79
2023/04/18 04:54:02;;;;;;;16.20;13.65;;;6.80;99.90;;;;;;5012749;28;20064;-79
2023/04/18 04:56:28;;;;;;;16.42;14.20;;;6.80;99.90;;;;;;4995663;28;20053;-78
2023/04/18 04:58:55;;;;;;;15.50;14.00;;;6.80;99.90;;;;;;5026759;28;20053;-79
2023/04/18 05:01:21;;;;;;;16.23;14.52;;;6.90;99.90;;;;;;5012487;28;20750;-81
2023/04/18 05:03:48;;;;;;;16.85;14.65;;;6.90;99.90;;;;;;4977269;28;20034;-80
2023/04/18 05:06:19;;;;;;;15.98;14.20;;;6.90;99.90;;;;;;5011209;28;20043;-80
2023/04/18 05:08:48;;;;;;;15.60;13.68;;;7.00;99.90;;;;;;5009238;28;20041;-82
2023/04/18 05:11:15;;;;;;;16.90;15.20;;;7.00;99.90;;;;;;4995457;28;20049;-79
2023/04/18 05:13:40;;;;;;;17.20;15.40;;;7.00;99.90;;;;;;4993557;28;20103;-80
2023/04/18 05:16:06;;;;;;;15.27;13.68;;;7.10;99.90;;;;;;4995185;28;20404;-80
2023/04/18 05:18:32;;;;;;;15.63;13.95;;;7.10;99.90;;;;;;5008629;28;20808;-80
2023/04/18 05:20:58;;;;;;;14.88;13.30;;;7.10;99.90;;;;;;4994423;28;20084;-79
2023/04/18 05:23:24;;;;;;;15.05;13.50;;;7.10;99.90;;;;;;5008884;28;20660;-81
2023/04/18 05:25:50;;;;;;;15.60;14.00;;;7.10;99.90;;;;;;5010814;28;20045;-79
2023/04/18 05:28:21;;;;;;;15.90;13.43;;;7.10;99.90;;;;;;4993091;28;20626;-79
2023/04/18 05:30:47;;;;;;;14.88;13.38;;;7.10;99.90;;;;;;5004970;28;20041;-79
2023/04/18 05:33:12;;;;;;;15.13;13.55;;;7.10;99.90;;;;;;4976180;28;20585;-80
2023/04/18 05:35:38;;;;;;;15.00;13.55;;;7.10;99.90;;;;;;4992576;28;20592;-79
2023/04/18 05:38:04;;;;;;;14.85;13.15;;;7.20;99.90;;;;;;4994197;28;20045;-81
2023/04/18 05:40:30;;;;;;;16.25;14.60;;;7.20;99.90;;;;;;4993515;28;20052;-80
2023/04/18 05:42:59;;;;;;;14.25;12.75;;;7.20;99.90;;;;;;4992876;28;20056;-79
2023/04/18 05:45:25;;;;;;;15.77;13.43;;;7.20;99.90;;;;;;4995599;28;20049;-79
2023/04/18 05:47:52;;;;;;;16.52;14.82;;;7.20;99.90;;;;;;5009178;28;20068;-79
2023/04/18 05:50:18;;;;;;;15.95;14.00;;;7.20;99.90;;;;;;4978018;28;20042;-79
2023/04/18 05:52:44;;;;;;;15.73;14.10;;;7.20;99.90;;;;;;4989670;28;20283;-80
2023/04/18 05:55:11;;;;;;;14.98;13.38;;;7.20;99.90;;;;;;4960593;28;20144;-82
2023/04/18 05:57:37;;;;;;;14.70;13.05;;;7.30;99.90;;;;;;4975893;28;20041;-81
2023/04/18 06:00:05;;;;;;;15.65;13.80;;;7.30;99.90;;;;;;5009024;28;20592;-80
2023/04/18 06:02:31;;;;;;;15.90;14.00;;;7.30;99.90;;;;;;4994182;28;20136;-80
2023/04/18 06:04:57;;;;;;;15.93;14.43;;;7.30;99.90;;;;;;4990624;28;21207;-80
2023/04/18 06:07:25;;;;;;;14.98;13.48;;;7.30;99.90;;;;;;4994620;28;20042;-83
2023/04/18 06:09:52;;;;;;;16.10;13.80;;;7.30;99.90;;;;;;5010862;28;20057;-83
2023/04/18 06:12:19;;;;;;;16.20;14.60;;;7.40;99.90;;;;;;4981001;28;20136;-80
2023/04/18 06:14:44;;;;;;;16.88;15.18;;;7.40;99.90;;;;;;4961315;28;20160;-80
2023/04/18 06:17:12;;;;;;;16.33;14.75;;;7.40;99.90;;;;;;4994453;28;20080;-72
2023/04/18 06:19:38;;;;;;;16.90;15.13;;;7.40;99.90;;;;;;4989992;28;20579;-73
2023/04/18 06:22:04;;;;;;;16.15;14.55;;;7.40;99.90;;;;;;4990047;28;20109;-72
2023/04/18 06:24:30;;;;;;;17.05;15.27;;;7.40;99.90;;;;;;5005357;28;20540;-73
2023/04/18 06:26:56;;;;;;;17.08;15.15;;;7.50;99.90;;;;;;4990426;28;20128;-72
2023/04/18 06:29:22;;;;;;;16.42;14.63;;;7.50;99.90;;;;;;4993497;28;20045;-73
2023/04/18 06:31:49;;;;;;;16.15;14.45;;;7.60;99.90;;;;;;4994295;28;20258;-73
2023/04/18 06:34:15;;;;;;;17.63;15.57;;;7.60;99.90;;;;;;5006606;28;20495;-73
2023/04/18 06:37:01;;;;;;;16.83;14.45;;;7.70;99.90;;;;;;4994307;28;20076;-73
2023/04/18 06:39:26;;;;;;;16.92;15.13;;;7.80;99.90;;;;;;5010143;28;20107;-73
2023/04/18 06:41:52;;;;;;;16.90;14.52;;;7.80;99.90;;;;;;4995733;28;20046;-71
2023/04/18 06:44:19;;;;;;;15.02;13.43;;;7.80;99.90;;;;;;4993828;28;20057;-73
2023/04/18 06:46:48;;;;;;;16.55;14.85;;;7.90;99.90;;;;;;4977244;28;20487;-72
2023/04/18 06:49:14;;;;;;;16.73;14.13;;;7.90;99.90;;;;;;5010790;28;20077;-73
2023/04/18 06:51:40;;;;;;;15.30;13.60;;;7.90;99.90;;;;;;5009993;28;20334;-73
2023/04/18 06:54:06;;;;;;;15.38;13.77;;;7.90;99.90;;;;;;4989447;28;20090;-72
2023/04/18 06:56:32;;;;;;;15.27;13.68;;;8.00;99.90;;;;;;4979925;28;20392;-72
2023/04/18 06:58:58;;;;;;;15.50;13.90;;;8.10;99.90;;;;;;4995151;28;20044;-73
2023/04/18 07:01:31;;;;;;;15.32;13.73;;;8.10;99.90;;;;;;4992939;28;20653;-72
2023/04/18 07:03:57;;;;;;;16.90;14.30;;;8.20;99.90;;;;;;5013042;28;20046;-73
2023/04/18 07:06:26;;;;;;;14.95;13.52;;;8.30;99.90;;;;;;4998357;28;20128;-72
2023/04/18 07:08:54;;;;;;;16.13;14.48;;;8.40;99.90;;;;;;5011302;28;20053;-72
2023/04/18 07:11:22;;;;;;;16.33;12.40;;;8.50;99.90;;;;;;5008892;28;20451;-73
2023/04/18 07:13:49;;;;;;;13.82;12.43;;;8.50;99.90;;;;;;4999271;28;20056;-72
2023/04/18 07:16:14;;;;;;;14.65;12.38;;;8.50;99.90;;;;;;5015151;28;20056;-72
2023/04/18 07:18:40;;;;;;;13.73;12.25;;;8.60;99.90;;;;;;4990599;28;20485;-74
2023/04/18 07:21:06;;;;;;;14.95;11.88;;;8.60;99.90;;;;;;4992568;28;20124;-73
2023/04/18 07:23:32;;;;;;;12.90;11.55;;;8.50;99.90;;;;;;4999678;28;20303;-74
2023/04/18 07:26:00;;;;;;;12.57;11.27;;;8.50;99.90;;;;;;4978678;28;20037;-73
2023/04/18 07:28:26;;;;;;;13.70;12.27;;;8.50;99.90;;;;;;5001453;28;20090;-72
2023/04/18 07:30:52;;;;;;;12.88;11.48;;;8.50;99.90;;;;;;5000315;28;20113;-72
2023/04/18 07:33:17;;;;;;;14.80;11.45;;;8.70;99.90;;;;;;5020376;28;20041;-72
2023/04/18 07:35:45;;;;;;;12.68;11.38;;;8.70;99.90;;;;;;4995618;28;20256;-72
2023/04/18 07:38:11;;;;;;;12.18;10.60;;;8.80;99.90;;;;;;4985772;28;20503;-72
2023/04/18 07:40:40;;;;;;;12.38;10.55;;;9.00;99.90;;;;;;4990134;28;20137;-72
2023/04/18 07:43:06;;;;;;;12.20;10.07;;;9.10;99.90;;;;;;4999783;28;20045;-72
2023/04/18 07:45:34;;;;;;;13.85;11.23;;;9.20;99.90;;;;;;4994258;28;20155;-72
2023/04/18 07:48:01;;;;;;;11.95;10.75;;;9.40;99.90;;;;;;5001752;28;20096;-72
2023/04/18 07:50:30;;;;;;;12.55;10.30;;;9.50;99.90;;;;;;5019972;28;20460;-73
2023/04/18 07:52:55;;;;;;;11.07;9.88;;;9.80;99.90;;;;;;4986438;28;20056;-73
2023/04/18 07:55:21;;;;;;;11.07;9.32;;;9.90;99.90;;;;;;4991640;28;20053;-73
2023/04/18 07:57:49;;;;;;;12.60;9.45;;;9.90;99.90;;;;;;4990931;28;20049;-74
2023/04/18 08:00:16;;;;;;;10.93;9.73;;;10.00;99.90;;;;;;4988581;28;20056;-74
2023/04/18 08:02:42;;;;;;;11.25;10.10;;;10.10;98.80;;;;;;5005242;28;20045;-73
2023/04/18 08:05:08;;;;;;;12.15;10.60;;;10.10;98.60;;;;;;4984787;28;20215;-73
2023/04/18 08:07:35;;;;;;;11.82;10.40;;;10.10;99.60;;;;;;5003655;28;20038;-73
2023/04/18 08:10:01;;;;;;;12.32;11.02;;;10.20;99.90;;;;;;5003440;28;20041;-73
2023/04/18 08:12:27;;;;;;;11.38;10.27;;;10.30;99.20;;;;;;5005574;28;20500;-73
2023/04/18 08:14:52;;;;;;;11.73;10.35;;;10.20;99.10;;;;;;5002626;28;20050;-73
2023/04/18 08:17:18;;;;;;;12.75;11.32;;;10.30;99.90;;;;;;5022284;28;20108;-74
2023/04/18 08:19:44;;;;;;;12.82;10.48;;;10.30;99.30;;;;;;5003105;28;20045;-73
2023/04/18 08:22:11;;;;;;;12.57;11.35;;;10.40;98.30;;;;;;5001875;28;20045;-73
2023/04/18 08:24:37;;;;;;;13.13;9.95;;;10.40;98.80;;;;;;5028722;28;20041;-75
2023/04/18 08:27:03;;;;;;;12.50;10.45;;;10.50;98.70;;;;;;5018337;28;20343;-73
2023/04/18 08:29:29;;;;;;;14.20;11.45;;;10.60;98.10;;;;;;5003503;28;20543;-73
2023/04/18 08:31:55;;;;;;;12.23;10.82;;;10.60;99.50;;;;;;5000417;28;20037;-74
2023/04/18 08:34:21;;;;;;;12.23;11.00;;;10.70;98.40;;;;;;5004523;28;20046;-76
2023/04/18 08:36:47;;;;;;;12.88;11.57;;;10.50;97.70;;;;;;4988405;28;20049;-75
2023/04/18 08:39:13;;;;;;;12.77;11.48;;;10.40;98.10;;;;;;5012921;28;20062;-77
2023/04/18 08:41:42;;;;;;;14.93;11.80;;;10.30;99.00;;;;;;5003219;28;20046;-75
2023/04/18 08:44:07;;;;;;;13.65;12.25;;;10.20;98.90;;;;;;5032241;28;20038;-75
2023/04/18 08:46:34;;;;;;;12.43;11.15;;;10.10;99.80;;;;;;4988323;28;20056;-75
2023/04/18 08:49:03;;;;;;;11.88;10.73;;;10.10;99.90;;;;;;5002038;28;20072;-75
2023/04/18 08:51:32;;;;;;;12.18;10.77;;;10.20;99.90;;;;;;5019118;28;20093;-76
2023/04/18 08:54:05;;;;;;;12.68;11.38;;;10.40;99.90;;;;;;5000365;28;20847;-75
2023/04/18 08:56:31;;;;;;;13.15;11.55;;;10.40;99.90;;;;;;5017254;28;20049;-75
2023/04/18 08:58:59;;;;;;;12.68;11.07;;;10.30;99.90;;;;;;5015230;28;20582;-75
2023/04/18 09:01:55;;;;;;;12.35;10.65;;;10.40;99.90;;;;;;4983369;28;20053;-75
2023/04/18 09:04:43;;;;;;;12.48;11.18;;;10.50;99.90;;;;;;4997795;28;20130;-76
2023/04/18 09:07:16;;;;;;;11.70;10.50;;;10.70;99.90;;;;;;5001178;28;20612;-75
2023/04/18 09:09:58;;;;;;;11.77;9.88;;;10.80;99.90;;;;;;4981777;28;20045;-76
2023/04/18 09:12:26;;;;;;;11.95;9.32;;;10.80;99.90;;;;;;5013792;28;20057;-75
2023/04/18 09:14:55;;;;;;;10.35;9.13;;;11.10;99.90;;;;;;5015480;28;20563;-76
2023/04/18 09:17:37;;;;;;;10.90;9.80;;;11.30;99.90;;;;;;5000436;28;20051;-76
2023/04/18 09:20:05;;;;;;;15.52;9.50;;;11.20;99.60;;;;;;5018702;28;20068;-74
2023/04/18 09:22:47;;;;;;;10.50;9.23;;;11.10;99.90;;;;;;5020368;28;20045;-75
2023/04/18 09:25:33;;;;;;;10.52;9.52;;;11.10;99.90;;;;;;5025938;28;20045;-77
2023/04/18 09:28:00;;;;;;;10.77;9.30;;;11.50;99.90;;;;;;5001629;28;20045;-80
2023/04/18 09:30:40;;;;;;;10.98;9.57;;;11.60;99.90;;;;;;5004147;28;20037;-75
2023/04/18 09:33:08;;;;;;;11.50;9.55;;;11.70;98.20;;;;;;5015424;28;20030;-77
2023/04/18 09:35:38;;;;;;;9.90;8.90;;;11.60;99.80;;;;;;5017883;28;20045;-75
2023/04/18 09:38:07;;;;;;;9.80;8.90;;;11.70;99.90;;;;;;5018359;28;20030;-78
2023/04/18 09:40:33;;;;;;;11.05;9.63;;;11.90;99.00;;;;;;5001619;28;20510;-75
2023/04/18 09:42:59;;;;;;;10.60;9.23;;;11.80;98.70;;;;;;5015640;28;20125;-76
2023/04/18 09:45:26;;;;;;;11.40;10.20;;;11.80;98.50;;;;;;5000143;28;20049;-77
2023/04/18 09:47:52;;;;;;;11.50;9.65;;;11.80;98.90;;;;;;5017250;28;20337;-76
2023/04/18 09:50:21;;;;;;;11.38;9.50;;;11.80;99.10;;;;;;5015390;28;20054;-75
2023/04/18 09:52:47;;;;;;;11.05;9.95;;;12.00;98.40;;;;;;4985690;28;20049;-75
2023/04/18 09:55:15;;;;;;;11.05;9.93;;;12.00;98.00;;;;;;5018762;28;20120;-76
2023/04/18 09:57:46;;;;;;;10.90;9.88;;;12.00;97.40;;;;;;4998709;28;20107;-76
2023/04/18 10:00:23;;;;;;;13.80;9.80;;;12.20;97.10;;;;;;5003459;28;20540;-75
2023/04/18 10:03:01;;;;;;;10.95;9.75;;;12.40;96.80;;;;;;4998771;28;20107;-76
2023/04/18 10:05:31;;;;;;;9.32;8.35;;;12.30;95.50;;;;;;5004579;28;20064;-73
2023/04/18 10:07:57;;;;;;;9.70;8.55;;;12.20;95.60;;;;;;5019087;28;20034;-72
2023/04/18 10:10:26;;;;;;;10.45;9.27;;;12.30;95.60;;;;;;5007850;28;20051;-73
2023/04/18 10:12:54;;;;;;;10.55;9.32;;;12.40;96.30;;;;;;5022867;28;20085;-73
2023/04/18 10:15:26;;;;;;;10.55;9.55;;;12.60;97.40;;;;;;4990719;28;20563;-74
2023/04/18 10:17:57;;;;;;;10.38;9.27;;;12.80;95.20;;;;;;5006421;28;20106;-73
2023/04/18 10:20:28;;;;;;;9.63;8.63;;;13.00;93.90;;;;;;5021906;28;20152;-74
2023/04/18 10:22:55;;;;;;;9.90;8.88;;;13.10;93.40;;;;;;5005962;28;20326;-74
2023/04/18 10:25:33;;;;;;;10.63;7.90;;;13.20;93.40;;;;;;5022420;28;20531;-73
2023/04/18 10:28:01;;;;;;;9.20;8.30;;;13.30;92.10;;;;;;5001708;28;20408;-74
2023/04/18 10:30:55;;;;;;;10.10;8.73;;;13.40;91.90;;;;;;4993483;28;20125;-73
2023/04/18 10:33:35;;;;;;;9.77;8.38;;;13.30;90.40;;;;;;5007615;28;20053;-73
2023/04/18 10:36:07;;;;;;;10.27;8.65;;;13.30;90.80;;;;;;5023526;28;20116;-73
2023/04/18 10:38:43;;;;;;;9.30;8.30;;;13.30;90.30;;;;;;5007312;28;20060;-74
2023/04/18 10:41:15;;;;;;;12.50;8.35;;;13.20;90.00;;;;;;5007724;28;20131;-74
2023/04/18 10:44:06;;;;;;;8.52;7.55;;;13.00;90.20;;;;;;5024342;28;20045;-72
2023/04/18 10:46:39;;;;;;;9.57;7.63;;;12.90;88.00;;;;;;5038844;28;20099;-74
2023/04/18 10:49:19;;;;;;;9.15;8.07;;;13.00;91.00;;;;;;4992640;28;20695;-74
2023/04/18 10:51:49;;;;;;;10.00;8.70;;;13.20;90.30;;;;;;5022264;28;20049;-74
2023/04/18 10:54:46;;;;;;;9.52;7.60;;;13.40;88.90;;;;;;4991416;28;20080;-74
2023/04/18 10:57:12;;;;;;;8.40;7.60;;;13.50;87.80;;;;;;5004287;28;20052;-75
2023/04/18 10:59:43;;;;;;;8.80;7.90;;;13.60;89.10;;;;;;5022465;28;20138;-75
2023/04/18 11:02:28;;;;;;;9.48;7.57;;;13.80;90.00;;;;;;5021044;28;20037;-74
2023/04/18 11:04:59;;;;;;;8.23;7.22;;;14.00;86.30;;;;;;5004793;28;20508;-74
2023/04/18 11:07:31;;;;;;;;;;;14.10;84.70;;;;;;5020146;28;20045;-75
2023/04/18 11:09:57;;;;;;;8.32;7.50;;;14.10;86.10;;;;;;5021907;28;20012;-76
2023/04/18 11:12:35;;;;;;;8.77;7.88;;;14.10;84.80;;;;;;5006429;28;20207;-78
2023/04/18 11:15:02;;;;;;;10.55;8.95;;;14.10;82.30;;;;;;5021460;28;21001;-76
2023/04/18 11:17:34;;;;;;;9.40;8.43;;;14.10;83.40;;;;;;5021326;28;20052;-78
2023/04/18 11:20:09;;;;;;;9.68;8.20;;;14.10;85.40;;;;;;5013199;28;20138;-76
2023/04/18 11:22:53;;;;;;;8.85;7.65;;;14.30;84.30;;;;;;5022635;28;20134;-76
2023/04/18 11:25:22;;;;;;;10.18;8.23;;;14.40;84.40;;;;;;5003781;28;20087;-77
2023/04/18 11:27:53;;;;;;;9.45;7.93;;;14.40;81.50;;;;;;5006978;28;20051;-73
2023/04/18 11:30:20;;;;;;;9.25;8.32;;;14.40;82.50;;;;;;5021722;28;20581;-75
2023/04/18 11:32:46;;;;;;;10.82;9.63;;;14.50;81.60;;;;;;5020420;28;20041;-73
2023/04/18 11:35:13;;;;;;;13.45;10.07;;;14.60;83.30;;;;;;4995395;28;20038;-74
2023/04/18 11:37:41;;;;;;;12.80;9.80;;;14.70;80.80;;;;;;5018573;28;20132;-74
2023/04/18 11:40:10;;;;;;;12.07;10.45;;;14.60;80.20;;;;;;5004720;28;20057;-73
2023/04/18 11:42:38;;;;;;;11.40;10.13;;;14.60;79.70;;;;;;5021890;28;20049;-74
2023/04/18 11:45:10;;;;;;;13.10;9.80;;;14.60;82.00;;;;;;5004885;28;21122;-73
2023/04/18 11:47:35;;;;;;;13.68;11.23;;;14.70;80.40;;;;;;5020180;28;20041;-74
2023/04/18 11:50:07;;;;;;;12.88;10.30;;;14.70;80.30;;;;;;5000032;28;20052;-73
2023/04/18 11:52:34;;;;;;;11.45;10.25;;;14.60;82.10;;;;;;4987522;28;20045;-74
2023/04/18 11:55:23;;;;;;;10.57;9.50;;;14.60;80.60;;;;;;5015714;28;20244;-75
2023/04/18 11:57:53;;;;;;;11.48;9.90;;;14.60;79.70;;;;;;5005772;28;20061;-73
2023/04/18 12:00:29;;;;;;;10.63;9.35;;;14.70;81.40;;;;;;5016914;28;20476;-73
2023/04/18 12:02:55;;;;;;;11.05;9.77;;;14.80;80.80;;;;;;5003707;28;20508;-74
2023/04/18 12:05:26;;;;;;;10.98;9.32;;;14.90;77.80;;;;;;5007778;28;20495;-73
2023/04/18 12:07:52;;;;;;;11.48;10.25;;;14.90;77.60;;;;;;5021477;28;20044;-73
2023/04/18 12:10:21;;;;;;;13.23;10.18;;;14.80;77.80;;;;;;5004499;28;20500;-74
2023/04/18 12:12:52;;;;;;;11.15;10.05;;;14.80;77.50;;;;;;5018186;28;20468;-74
2023/04/18 12:15:18;;;;;;;15.32;9.98;;;14.90;77.60;;;;;;5018707;28;20050;-74
2023/04/18 12:17:47;;;;;;;10.63;9.52;;;15.00;76.80;;;;;;5018160;28;20045;-75
2023/04/18 12:20:14;;;;;;;11.38;10.15;;;15.20;76.60;;;;;;5015773;28;20052;-74
2023/04/18 12:22:48;;;;;;;12.93;9.60;;;15.20;75.10;;;;;;5001989;28;20511;-74
2023/04/18 12:25:30;;;;;;;10.90;9.68;;;15.10;76.60;;;;;;5019976;28;20065;-74
2023/04/18 12:28:02;;;;;;;11.30;10.20;;;15.10;75.90;;;;;;5001651;28;20495;-74
2023/04/18 12:30:33;;;;;;;12.25;10.10;;;15.00;73.80;;;;;;5017364;28;20296;-73
2023/04/18 12:33:01;;;;;;;11.73;10.40;;;15.00;75.10;;;;;;5017511;28;20152;-74
2023/04/18 12:35:28;;;;;;;12.70;10.68;;;15.20;77.60;;;;;;5002537;28;20043;-75
2023/04/18 12:37:57;;;;;;;17.85;10.15;;;15.30;76.60;;;;;;5018655;28;20136;-74
2023/04/18 12:40:26;;;;;;;14.23;10.43;;;15.40;74.70;;;;;;5017485;28;20056;-75